Time;durP1;ratioP1;P1;durP2;ratioP2;P2;SDS_P1;SDS_P2;PMS_P1;PMS_P2;Temp;Humidity;BMP_temperature;BMP_pressure;BME280_temperature;BME280_humidity;BME280_pressure;Samples;Min_cycle;Max_cycle;Signal;HPM_P1;HPM_P2
2023/09/17 00:01:20;;;;;;;26.75;22.25;;;15.20;99.90;;;;;;5017539;28;20098;-83
2023/09/17 00:03:46;;;;;;;26.90;23.10;;;15.20;99.90;;;;;;5034550;28;20049;-83
2023/09/17 00:06:11;;;;;;;26.95;23.15;;;15.20;99.90;;;;;;5034167;28;20045;-84
2023/09/17 00:08:38;;;;;;;27.08;24.00;;;15.20;99.90;;;;;;5017348;28;20079;-84
2023/09/17 00:11:04;;;;;;;26.45;23.48;;;15.20;99.90;;;;;;5034289;28;20103;-83
2023/09/17 00:13:30;;;;;;;29.52;25.27;;;15.10;99.90;;;;;;5014741;28;20120;-84
2023/09/17 00:15:56;;;;;;;33.33;26.98;;;15.10;99.90;;;;;;5002192;28;20097;-84
2023/09/17 00:18:22;;;;;;;35.33;28.85;;;15.10;99.90;;;;;;5001253;28;20199;-83
2023/09/17 00:20:48;;;;;;;33.35;28.90;;;15.10;99.90;;;;;;5034895;28;20037;-84
2023/09/17 00:23:14;;;;;;;33.97;30.17;;;15.20;99.90;;;;;;4984245;28;20065;-84
2023/09/17 00:25:40;;;;;;;37.42;31.30;;;15.30;99.90;;;;;;5030174;28;20046;-83
2023/09/17 00:28:06;;;;;;;35.03;29.75;;;15.30;99.90;;;;;;5030672;28;20043;-84
2023/09/17 00:30:32;;;;;;;37.38;31.58;;;15.30;99.90;;;;;;5016258;28;20045;-83
2023/09/17 00:32:57;;;;;;;37.65;31.83;;;15.40;99.90;;;;;;5000196;28;20777;-84
2023/09/17 00:35:23;;;;;;;37.60;31.05;;;15.40;99.90;;;;;;5016580;28;20040;-83
2023/09/17 00:37:51;;;;;;;33.83;28.80;;;15.50;99.90;;;;;;5000302;28;20516;-83
2023/09/17 00:40:16;;;;;;;34.80;29.98;;;15.50;99.90;;;;;;4983677;28;20040;-84
2023/09/17 00:42:42;;;;;;;38.15;30.30;;;15.50;99.90;;;;;;5015680;28;20029;-84
2023/09/17 00:45:10;;;;;;;38.88;32.03;;;15.50;99.90;;;;;;5033059;28;20099;-84
2023/09/17 00:47:37;;;;;;;41.38;33.10;;;15.50;99.90;;;;;;5016915;28;20120;-84
2023/09/17 00:50:04;;;;;;;40.40;34.63;;;15.50;99.90;;;;;;5017144;28;20037;-83
2023/09/17 00:52:33;;;;;;;43.75;35.58;;;15.50;99.90;;;;;;5033810;28;20409;-84
2023/09/17 00:54:59;;;;;;;41.17;35.22;;;15.50;99.90;;;;;;5033160;28;20085;-84
2023/09/17 00:57:25;;;;;;;42.53;36.03;;;15.60;99.90;;;;;;5000634;28;20091;-84
2023/09/17 00:59:51;;;;;;;40.40;34.65;;;15.60;99.90;;;;;;5016054;28;20052;-83
2023/09/17 01:02:22;;;;;;;43.08;35.45;;;15.60;99.90;;;;;;5006938;28;20478;-84
2023/09/17 01:04:50;;;;;;;40.80;35.75;;;15.60;99.90;;;;;;5010129;28;20041;-84
2023/09/17 01:07:17;;;;;;;39.75;33.65;;;15.60;99.90;;;;;;5032855;28;20517;-84
2023/09/17 01:09:43;;;;;;;40.28;34.80;;;15.60;99.90;;;;;;5016453;28;20030;-84
2023/09/17 01:12:09;;;;;;;42.47;34.33;;;15.60;99.90;;;;;;5025956;28;20038;-84
2023/09/17 01:14:36;;;;;;;38.40;33.15;;;15.60;99.90;;;;;;4989454;28;20540;-84
2023/09/17 01:17:04;;;;;;;39.60;33.45;;;15.60;99.90;;;;;;5014547;28;20065;-84
2023/09/17 01:19:32;;;;;;;40.35;33.78;;;15.60;99.90;;;;;;4999852;28;20037;-84
2023/09/17 01:22:10;;;;;;;39.20;32.72;;;15.60;99.90;;;;;;5032749;28;20034;-84
2023/09/17 01:24:41;;;;;;;36.60;31.75;;;15.60;99.90;;;;;;5016367;28;20045;-83
2023/09/17 01:27:09;;;;;;;37.08;32.47;;;15.60;99.90;;;;;;5015786;28;20496;-84
2023/09/17 01:29:39;;;;;;;39.85;32.53;;;15.50;99.90;;;;;;5029929;28;20042;-83
2023/09/17 01:32:06;;;;;;;42.15;33.78;;;15.50;99.90;;;;;;5016205;28;20053;-84
2023/09/17 01:34:37;;;;;;;40.53;34.65;;;15.60;99.90;;;;;;5015385;28;20044;-83
2023/09/17 01:37:09;;;;;;;41.67;34.58;;;15.50;99.90;;;;;;5026867;28;20543;-83
2023/09/17 01:39:41;;;;;;;41.30;33.75;;;15.50;99.90;;;;;;5030662;28;20048;-83
2023/09/17 01:42:08;;;;;;;42.05;34.15;;;15.60;99.90;;;;;;5031882;28;20041;-83
2023/09/17 01:44:34;;;;;;;43.60;35.55;;;15.60;99.90;;;;;;5012870;28;20061;-83
2023/09/17 01:47:03;;;;;;;43.72;35.35;;;15.60;99.90;;;;;;5029925;28;20053;-84
2023/09/17 01:49:32;;;;;;;43.10;35.60;;;15.50;99.90;;;;;;5015270;28;20481;-84
2023/09/17 01:51:58;;;;;;;40.50;35.85;;;15.50;99.90;;;;;;5014034;28;20052;-83
2023/09/17 01:54:25;;;;;;;47.05;36.90;;;15.50;99.90;;;;;;4995628;28;20029;-83
2023/09/17 01:56:51;;;;;;;46.35;36.42;;;15.50;99.90;;;;;;5015056;28;20437;-83
2023/09/17 01:59:17;;;;;;;44.85;38.03;;;15.50;99.90;;;;;;5015407;28;20029;-84
2023/09/17 02:01:43;;;;;;;46.15;38.30;;;15.50;99.90;;;;;;5006259;28;20098;-83
2023/09/17 02:04:09;;;;;;;45.33;37.17;;;15.50;99.90;;;;;;5023087;28;20041;-84
2023/09/17 02:06:36;;;;;;;48.53;38.60;;;15.50;99.90;;;;;;5028241;28;20033;-84
2023/09/17 02:09:08;;;;;;;42.95;37.75;;;15.50;99.90;;;;;;5012822;28;20128;-83
2023/09/17 02:11:34;;;;;;;44.58;37.80;;;15.50;99.90;;;;;;4994543;28;20037;-83
2023/09/17 02:13:59;;;;;;;46.92;39.10;;;15.50;99.90;;;;;;5012545;28;20044;-84
2023/09/17 02:16:25;;;;;;;45.88;37.33;;;15.50;99.90;;;;;;5013558;28;20037;-84
2023/09/17 02:18:51;;;;;;;47.85;38.50;;;15.50;99.90;;;;;;5000048;28;20034;-83
2023/09/17 02:21:17;;;;;;;51.67;38.17;;;15.50;99.90;;;;;;5012597;28;20385;-83
2023/09/17 02:23:44;;;;;;;46.28;38.28;;;15.50;99.90;;;;;;5026682;28;20374;-83
2023/09/17 02:26:10;;;;;;;46.33;38.08;;;15.50;99.90;;;;;;4998610;28;20175;-84
2023/09/17 02:28:35;;;;;;;47.03;39.30;;;15.60;99.90;;;;;;4998430;28;20124;-83
2023/09/17 02:31:02;;;;;;;49.42;40.45;;;15.50;99.90;;;;;;5014511;28;20041;-83
2023/09/17 02:33:29;;;;;;;46.90;38.53;;;15.50;99.90;;;;;;4982637;28;20045;-83
2023/09/17 02:35:55;;;;;;;47.65;39.22;;;15.50;99.90;;;;;;4999018;28;20118;-84
2023/09/17 02:38:21;;;;;;;47.60;39.85;;;15.50;99.90;;;;;;4982083;28;20037;-83
2023/09/17 02:40:47;;;;;;;50.13;39.22;;;15.60;99.90;;;;;;4998068;28;20148;-83
2023/09/17 02:43:13;;;;;;;51.38;40.42;;;15.60;99.90;;;;;;5014812;28;20091;-83
2023/09/17 02:45:39;;;;;;;47.55;39.53;;;15.50;99.90;;;;;;4997752;28;20081;-82
2023/09/17 02:48:05;;;;;;;49.42;40.55;;;15.50;99.90;;;;;;5014649;28;20064;-83
2023/09/17 02:50:31;;;;;;;50.42;41.30;;;15.50;99.90;;;;;;4998528;28;20037;-83
2023/09/17 02:52:58;;;;;;;49.28;41.05;;;15.40;99.90;;;;;;4998580;28;20041;-83
2023/09/17 02:55:23;;;;;;;53.03;44.03;;;15.40;99.90;;;;;;4998538;28;20060;-83
2023/09/17 02:57:50;;;;;;;53.90;43.70;;;15.40;99.90;;;;;;4998519;28;20076;-82
2023/09/17 03:00:21;;;;;;;55.30;42.88;;;15.40;99.90;;;;;;5013453;28;20060;-83
2023/09/17 03:02:48;;;;;;;55.10;43.17;;;15.40;99.90;;;;;;5013648;28;20046;-83
2023/09/17 03:05:14;;;;;;;57.42;43.90;;;15.40;99.90;;;;;;5014556;28;20810;-83
2023/09/17 03:07:41;;;;;;;53.85;43.10;;;15.40;99.90;;;;;;4995154;28;20076;-83
2023/09/17 03:10:11;;;;;;;56.50;43.97;;;15.40;99.90;;;;;;5011494;28;20068;-82
2023/09/17 03:12:38;;;;;;;54.75;43.53;;;15.40;99.90;;;;;;5031272;28;20116;-82
2023/09/17 03:15:08;;;;;;;54.90;44.35;;;15.40;99.90;;;;;;5031198;28;20045;-83
2023/09/17 03:17:37;;;;;;;56.72;44.72;;;15.40;99.90;;;;;;5014761;28;20041;-82
2023/09/17 03:20:13;;;;;;;57.08;44.13;;;15.40;99.90;;;;;;5002605;28;20115;-83
2023/09/17 03:22:40;;;;;;;55.55;44.00;;;15.40;99.90;;;;;;5011402;28;20516;-83
2023/09/17 03:25:06;;;;;;;60.50;45.05;;;15.40;99.90;;;;;;5006487;28;20141;-83
2023/09/17 03:27:33;;;;;;;57.30;44.20;;;15.40;99.90;;;;;;5008672;28;20511;-83
2023/09/17 03:30:00;;;;;;;55.63;43.50;;;15.40;99.90;;;;;;5014573;28;20038;-83
2023/09/17 03:32:26;;;;;;;56.97;43.92;;;15.40;99.90;;;;;;4987632;28;20066;-83
2023/09/17 03:34:52;;;;;;;54.65;44.75;;;15.40;99.90;;;;;;4991693;28;20129;-83
2023/09/17 03:37:18;;;;;;;57.10;45.40;;;15.30;99.90;;;;;;4997873;28;20048;-82
2023/09/17 03:39:48;;;;;;;55.28;44.05;;;15.30;99.90;;;;;;4998002;28;20042;-83
2023/09/17 03:42:13;;;;;;;55.45;43.10;;;15.30;99.90;;;;;;5013840;28;20480;-84
2023/09/17 03:44:40;;;;;;;58.78;44.95;;;15.30;99.90;;;;;;5013775;28;20085;-83
2023/09/17 03:47:06;;;;;;;57.03;45.00;;;15.30;99.90;;;;;;4997683;28;20092;-83
2023/09/17 03:49:31;;;;;;;60.10;45.20;;;15.30;99.90;;;;;;5014320;28;20056;-83
2023/09/17 03:51:57;;;;;;;59.50;46.35;;;15.30;99.90;;;;;;4990788;28;20029;-83
2023/09/17 03:54:26;;;;;;;59.63;45.67;;;15.30;99.90;;;;;;4997672;28;20489;-83
2023/09/17 03:56:52;;;;;;;60.45;46.47;;;15.30;99.90;;;;;;5030331;28;20038;-83
2023/09/17 03:59:18;;;;;;;60.88;47.15;;;15.30;99.90;;;;;;5014258;28;20448;-84
2023/09/17 04:01:43;;;;;;;58.60;46.60;;;15.30;99.90;;;;;;4997330;28;20571;-83
2023/09/17 04:04:10;;;;;;;58.67;46.22;;;15.30;99.90;;;;;;4997861;28;20094;-83
2023/09/17 04:06:35;;;;;;;59.00;46.15;;;15.30;99.90;;;;;;4981673;28;20044;-83
2023/09/17 04:09:01;;;;;;;58.53;46.55;;;15.30;99.90;;;;;;4981211;28;20489;-84
2023/09/17 04:11:28;;;;;;;58.63;46.05;;;15.30;99.90;;;;;;4997263;28;20069;-83
2023/09/17 04:13:54;;;;;;;64.60;48.65;;;15.30;99.90;;;;;;5013606;28;20034;-84
2023/09/17 04:16:23;;;;;;;63.70;49.05;;;15.30;99.90;;;;;;5013945;28;20076;-83
2023/09/17 04:18:50;;;;;;;58.45;45.10;;;15.30;99.90;;;;;;5015083;28;20478;-82
2023/09/17 04:21:16;;;;;;;61.88;45.85;;;15.30;99.90;;;;;;5047095;28;20122;-82
2023/09/17 04:23:42;;;;;;;64.60;49.00;;;15.30;99.90;;;;;;5005513;28;20048;-83
2023/09/17 04:26:12;;;;;;;64.97;48.95;;;15.30;99.90;;;;;;4978596;28;20045;-83
2023/09/17 04:28:38;;;;;;;65.65;49.67;;;15.30;99.90;;;;;;5024541;28;20393;-83
2023/09/17 04:31:03;;;;;;;64.63;49.95;;;15.30;99.90;;;;;;4989703;28;20050;-83
2023/09/17 04:33:29;;;;;;;65.07;48.80;;;15.30;99.90;;;;;;5003636;28;20128;-84
2023/09/17 04:35:56;;;;;;;60.28;47.92;;;15.30;99.90;;;;;;4991538;28;20048;-83
2023/09/17 04:38:22;;;;;;;57.15;44.70;;;15.30;99.90;;;;;;5016996;28;20037;-83
2023/09/17 04:40:47;;;;;;;63.80;46.50;;;15.40;99.90;;;;;;5017028;28;20116;-84
2023/09/17 04:43:13;;;;;;;58.75;45.97;;;15.40;99.90;;;;;;5013759;28;20041;-83
2023/09/17 04:45:39;;;;;;;62.78;46.50;;;15.40;99.90;;;;;;5016542;28;20053;-83
2023/09/17 04:48:06;;;;;;;60.10;45.60;;;15.40;99.90;;;;;;5015454;28;20490;-83
2023/09/17 04:50:33;;;;;;;61.25;47.60;;;15.40;99.90;;;;;;5015694;28;20862;-83
2023/09/17 04:53:00;;;;;;;61.28;45.65;;;15.40;99.90;;;;;;5018035;28;20266;-83
2023/09/17 04:55:26;;;;;;;56.92;44.67;;;15.40;99.90;;;;;;5000722;28;20037;-83
2023/09/17 04:57:52;;;;;;;62.38;46.67;;;15.40;99.90;;;;;;5016313;28;20049;-83
2023/09/17 05:00:20;;;;;;;59.03;45.85;;;15.40;99.90;;;;;;4987201;28;20641;-83
2023/09/17 05:02:47;;;;;;;59.22;46.95;;;15.40;99.90;;;;;;5006696;28;20037;-83
2023/09/17 05:05:13;;;;;;;58.90;45.83;;;15.50;99.90;;;;;;5016930;28;20065;-83
2023/09/17 05:07:39;;;;;;;59.42;47.15;;;15.50;99.90;;;;;;5016876;28;20554;-83
2023/09/17 05:10:07;;;;;;;63.15;48.72;;;15.50;99.90;;;;;;5016641;28;20097;-83
2023/09/17 05:12:33;;;;;;;64.75;47.92;;;15.40;99.90;;;;;;4984749;28;20037;-83
2023/09/17 05:14:59;;;;;;;63.47;49.05;;;15.50;99.90;;;;;;4980705;28;20045;-83
2023/09/17 05:17:24;;;;;;;63.40;48.45;;;15.50;99.90;;;;;;5016357;28;20385;-83
2023/09/17 05:19:50;;;;;;;61.35;49.00;;;15.40;99.90;;;;;;4984168;28;20044;-83
2023/09/17 05:22:16;;;;;;;66.30;49.65;;;15.50;99.90;;;;;;5000202;28;20440;-83
2023/09/17 05:24:41;;;;;;;64.75;50.63;;;15.50;99.90;;;;;;5016116;28;20049;-84
2023/09/17 05:27:07;;;;;;;64.57;50.42;;;15.50;99.90;;;;;;5000685;28;20041;-83
2023/09/17 05:29:33;;;;;;;66.70;49.47;;;15.50;99.90;;;;;;4999767;28;20041;-83
2023/09/17 05:31:59;;;;;;;66.38;51.33;;;15.50;99.90;;;;;;4999435;28;20087;-83
2023/09/17 05:34:25;;;;;;;67.03;50.63;;;15.50;99.90;;;;;;4999431;28;20052;-83
2023/09/17 05:36:50;;;;;;;67.97;51.35;;;15.50;99.90;;;;;;4980042;28;20448;-83
2023/09/17 05:39:16;;;;;;;69.30;51.80;;;15.50;99.90;;;;;;5023059;28;20037;-83
2023/09/17 05:41:42;;;;;;;63.90;51.47;;;15.50;99.90;;;;;;5015526;28;20037;-83
2023/09/17 05:44:07;;;;;;;69.63;52.22;;;15.50;99.90;;;;;;4981776;28;20053;-83
2023/09/17 05:46:33;;;;;;;69.03;51.28;;;15.50;99.90;;;;;;5031862;28;20053;-82
2023/09/17 05:48:59;;;;;;;66.72;50.05;;;15.50;99.90;;;;;;5015228;28;20056;-83
2023/09/17 05:51:25;;;;;;;67.05;51.47;;;15.60;99.90;;;;;;5014651;28;20049;-83
2023/09/17 05:53:50;;;;;;;67.47;51.17;;;15.60;99.90;;;;;;5027964;28;20041;-83
2023/09/17 05:56:16;;;;;;;71.82;51.70;;;15.70;99.90;;;;;;5031599;28;20041;-83
2023/09/17 05:58:43;;;;;;;64.85;50.42;;;15.70;99.90;;;;;;5029168;28;20037;-83
2023/09/17 06:01:08;;;;;;;64.75;50.83;;;15.70;99.90;;;;;;5031653;28;20045;-82
2023/09/17 06:03:34;;;;;;;65.22;50.60;;;15.80;99.90;;;;;;5032794;28;20090;-83
2023/09/17 06:06:00;;;;;;;66.07;49.30;;;15.80;99.90;;;;;;5031494;28;20175;-82
2023/09/17 06:08:28;;;;;;;61.63;48.33;;;15.80;99.90;;;;;;5030223;28;20104;-83
2023/09/17 06:10:55;;;;;;;63.03;49.50;;;15.90;99.90;;;;;;4999513;28;20495;-83
2023/09/17 06:13:21;;;;;;;66.50;49.13;;;15.90;99.90;;;;;;5031369;28;20048;-83
2023/09/17 06:15:46;;;;;;;65.50;48.20;;;15.90;99.90;;;;;;5015211;28;20433;-82
2023/09/17 06:18:12;;;;;;;60.33;47.80;;;15.90;99.90;;;;;;5015295;28;20041;-83
2023/09/17 06:20:39;;;;;;;60.65;48.42;;;16.00;99.90;;;;;;5031243;28;20501;-83
2023/09/17 06:23:05;;;;;;;59.63;47.00;;;16.00;99.90;;;;;;5015484;28;20187;-83
2023/09/17 06:25:31;;;;;;;57.15;47.03;;;16.00;99.90;;;;;;5031583;28;20532;-83
2023/09/17 06:27:56;;;;;;;59.78;48.47;;;16.10;99.90;;;;;;5003273;28;20104;-83
2023/09/17 06:30:22;;;;;;;65.32;49.28;;;16.10;99.90;;;;;;5012092;28;20034;-83
2023/09/17 06:32:48;;;;;;;60.75;47.42;;;16.10;99.90;;;;;;5006268;28;20111;-83
2023/09/17 06:35:14;;;;;;;61.03;47.25;;;16.10;99.90;;;;;;5015462;28;20504;-83
2023/09/17 06:37:40;;;;;;;63.80;47.40;;;16.20;99.90;;;;;;5004372;28;20052;-82
2023/09/17 06:40:09;;;;;;;63.03;46.78;;;16.20;99.90;;;;;;5035165;28;20044;-83
2023/09/17 06:42:35;;;;;;;60.58;47.35;;;16.20;99.90;;;;;;5019840;28;20042;-83
2023/09/17 06:45:00;;;;;;;60.50;46.80;;;16.20;99.90;;;;;;5014804;28;20067;-83
2023/09/17 06:47:26;;;;;;;57.33;45.10;;;16.20;99.90;;;;;;5029686;28;20095;-83
2023/09/17 06:49:52;;;;;;;61.92;46.60;;;16.30;99.90;;;;;;5030533;28;20551;-83
2023/09/17 06:52:17;;;;;;;59.55;47.03;;;16.30;99.90;;;;;;4996945;28;20080;-84
2023/09/17 06:54:43;;;;;;;65.80;47.50;;;16.30;99.90;;;;;;4997963;28;20037;-84
2023/09/17 06:57:09;;;;;;;57.28;46.83;;;16.30;99.90;;;;;;5030638;28;20536;-84
2023/09/17 06:59:36;;;;;;;61.25;46.72;;;16.30;99.90;;;;;;5009161;28;20445;-84
2023/09/17 07:02:01;;;;;;;59.72;46.58;;;16.30;99.90;;;;;;4992807;28;20432;-84
2023/09/17 07:04:27;;;;;;;61.72;47.42;;;16.40;99.90;;;;;;4975560;28;20045;-84
2023/09/17 07:06:54;;;;;;;62.80;48.28;;;16.40;99.90;;;;;;5030685;28;20037;-84
2023/09/17 07:09:20;;;;;;;58.30;47.78;;;16.40;99.90;;;;;;5029851;28;20041;-83
2023/09/17 07:11:45;;;;;;;63.03;47.17;;;16.40;99.90;;;;;;5032137;28;20132;-84
2023/09/17 07:14:11;;;;;;;61.25;47.08;;;16.40;99.90;;;;;;4997920;28;20054;-85
2023/09/17 07:16:37;;;;;;;58.35;46.10;;;16.40;99.90;;;;;;5012081;28;20044;-84
2023/09/17 07:19:06;;;;;;;58.72;46.17;;;16.50;99.90;;;;;;4993280;28;20770;-84
2023/09/17 07:21:32;;;;;;;58.15;47.47;;;16.50;99.90;;;;;;5029145;28;20041;-84
2023/09/17 07:23:58;;;;;;;59.08;46.42;;;16.50;99.90;;;;;;5007189;28;20041;-85
2023/09/17 07:26:24;;;;;;;55.05;44.38;;;16.60;99.90;;;;;;5026420;28;20614;-83
2023/09/17 07:28:49;;;;;;;54.25;44.95;;;16.60;99.90;;;;;;5026282;28;20504;-82
2023/09/17 07:31:15;;;;;;;55.30;44.88;;;16.70;99.90;;;;;;4997043;28;20172;-82
2023/09/17 07:33:42;;;;;;;54.50;43.65;;;16.70;99.90;;;;;;5013760;28;20042;-83
2023/09/17 07:36:09;;;;;;;55.70;44.80;;;16.70;99.90;;;;;;5030908;28;20048;-85
2023/09/17 07:38:35;;;;;;;54.10;43.10;;;16.80;99.90;;;;;;5027700;28;20044;-85
2023/09/17 07:41:01;;;;;;;50.92;43.45;;;16.90;99.90;;;;;;4997976;28;20029;-83
2023/09/17 07:43:26;;;;;;;53.42;45.30;;;16.90;99.90;;;;;;5014009;28;20084;-83
2023/09/17 07:45:52;;;;;;;52.97;42.50;;;17.00;99.90;;;;;;5019002;28;20054;-82
2023/09/17 07:48:20;;;;;;;48.78;41.70;;;17.10;99.90;;;;;;5023422;28;20037;-82
2023/09/17 07:50:58;;;;;;;45.20;40.13;;;17.10;99.90;;;;;;5014450;28;20042;-83
2023/09/17 07:53:25;;;;;;;47.33;40.65;;;17.20;99.90;;;;;;5032266;28;20077;-83
2023/09/17 07:55:51;;;;;;;45.55;39.20;;;17.20;99.90;;;;;;5009351;28;20042;-84
2023/09/17 07:58:16;;;;;;;44.00;38.00;;;17.30;99.90;;;;;;5012858;28;20040;-84
2023/09/17 08:00:45;;;;;;;41.40;36.88;;;17.30;99.90;;;;;;5014218;28;20397;-83
2023/09/17 08:03:13;;;;;;;43.85;35.17;;;17.40;99.90;;;;;;5030533;28;20120;-84
2023/09/17 08:05:40;;;;;;;41.42;35.60;;;17.40;99.90;;;;;;5030233;28;20053;-84
2023/09/17 08:08:07;;;;;;;39.50;34.75;;;17.40;99.90;;;;;;5013749;28;20057;-84
2023/09/17 08:10:33;;;;;;;40.08;35.72;;;17.40;99.90;;;;;;5033724;28;20073;-83
2023/09/17 08:12:59;;;;;;;38.97;34.05;;;17.40;99.90;;;;;;5017957;28;20042;-84
2023/09/17 08:15:24;;;;;;;39.28;34.08;;;17.40;99.90;;;;;;5017319;28;20384;-83
2023/09/17 08:17:51;;;;;;;37.53;32.65;;;17.40;99.90;;;;;;5010063;28;20045;-84
2023/09/17 08:20:17;;;;;;;40.40;34.42;;;17.40;99.90;;;;;;5018129;28;20077;-84
2023/09/17 08:22:43;;;;;;;41.13;33.00;;;17.50;99.90;;;;;;5033801;28;20061;-83
2023/09/17 08:25:09;;;;;;;39.67;34.25;;;17.50;99.90;;;;;;5012946;28;20416;-82
2023/09/17 08:27:35;;;;;;;42.15;34.17;;;17.50;99.90;;;;;;5016139;28;20041;-83
2023/09/17 08:30:03;;;;;;;39.72;34.08;;;17.50;99.90;;;;;;5017279;28;20037;-82
2023/09/17 08:32:30;;;;;;;41.45;33.03;;;17.50;99.90;;;;;;5016804;28;20041;-82
2023/09/17 08:34:55;;;;;;;37.53;33.28;;;17.60;99.90;;;;;;5017291;28;20045;-84
2023/09/17 08:37:22;;;;;;;39.10;34.50;;;17.60;99.90;;;;;;5016128;28;20040;-83
2023/09/17 08:39:48;;;;;;;39.85;34.75;;;17.60;99.90;;;;;;5033125;28;20038;-83
2023/09/17 08:42:14;;;;;;;40.08;32.92;;;17.70;99.90;;;;;;5034107;28;20114;-83
2023/09/17 08:44:42;;;;;;;37.72;32.20;;;17.70;99.90;;;;;;5017295;28;20084;-83
2023/09/17 08:47:07;;;;;;;33.33;29.80;;;17.80;99.90;;;;;;5015111;28;20060;-83
2023/09/17 08:49:33;;;;;;;35.05;30.33;;;17.90;99.90;;;;;;5019762;28;20037;-83
2023/09/17 08:52:04;;;;;;;32.42;28.95;;;17.90;99.90;;;;;;4984630;28;20045;-83
2023/09/17 08:54:36;;;;;;;34.33;29.38;;;18.00;99.90;;;;;;5017348;28;20129;-83
2023/09/17 08:57:03;;;;;;;32.65;28.15;;;18.00;99.90;;;;;;5026881;28;20033;-82
2023/09/17 08:59:30;;;;;;;30.77;27.55;;;18.10;99.90;;;;;;5031368;28;20033;-83
2023/09/17 09:02:02;;;;;;;30.17;27.05;;;18.10;99.90;;;;;;5031714;28;21322;-83
2023/09/17 09:04:30;;;;;;;32.05;26.70;;;18.20;99.90;;;;;;5013565;28;20076;-83
2023/09/17 09:06:56;;;;;;;28.25;25.10;;;18.20;99.90;;;;;;5013850;28;20037;-83
2023/09/17 09:09:23;;;;;;;28.60;24.67;;;18.30;99.90;;;;;;4998409;28;20120;-82
2023/09/17 09:11:49;;;;;;;29.27;26.08;;;18.30;99.90;;;;;;5000001;28;20075;-83
2023/09/17 09:14:15;;;;;;;28.13;24.65;;;18.30;99.90;;;;;;4996982;28;20124;-83
2023/09/17 09:16:43;;;;;;;29.15;25.95;;;18.40;99.90;;;;;;5014471;28;20041;-83
2023/09/17 09:19:09;;;;;;;28.67;25.65;;;18.40;99.90;;;;;;4997944;28;20073;-82
2023/09/17 09:21:35;;;;;;;27.50;24.58;;;18.50;99.90;;;;;;4989004;28;20076;-83
2023/09/17 09:24:01;;;;;;;27.95;25.05;;;18.50;99.90;;;;;;5016452;28;20098;-83
2023/09/17 09:26:37;;;;;;;29.55;26.05;;;18.50;99.90;;;;;;5000748;28;20037;-83
2023/09/17 09:29:08;;;;;;;30.23;26.52;;;18.50;99.90;;;;;;5016305;28;20099;-84
2023/09/17 09:31:34;;;;;;;28.90;25.77;;;18.50;99.90;;;;;;5031602;28;20038;-83
2023/09/17 09:34:02;;;;;;;31.27;27.08;;;18.60;99.90;;;;;;5014206;28;20037;-83
2023/09/17 09:36:31;;;;;;;31.25;27.45;;;18.60;99.90;;;;;;4995848;28;20042;-83
2023/09/17 09:38:57;;;;;;;33.05;27.38;;;18.60;99.90;;;;;;5014938;28;20044;-83
2023/09/17 09:41:29;;;;;;;30.08;26.55;;;18.60;99.90;;;;;;5006489;28;20374;-84
2023/09/17 09:43:56;;;;;;;30.10;26.63;;;18.60;99.90;;;;;;5008664;28;20037;-83
2023/09/17 09:46:24;;;;;;;32.85;27.95;;;18.60;99.90;;;;;;5031591;28;20053;-83
2023/09/17 09:48:51;;;;;;;31.98;28.15;;;18.60;99.90;;;;;;5032438;28;20056;-83
2023/09/17 09:51:18;;;;;;;34.03;29.92;;;18.60;99.90;;;;;;5031320;28;20052;-83
2023/09/17 09:53:45;;;;;;;33.58;30.00;;;18.60;99.90;;;;;;5016338;28;20089;-83
2023/09/17 09:56:11;;;;;;;34.72;30.92;;;18.60;99.90;;;;;;5013975;28;20045;-83
2023/09/17 09:58:39;;;;;;;33.40;29.63;;;18.60;99.90;;;;;;5015359;28;20329;-83
2023/09/17 10:01:05;;;;;;;34.53;29.70;;;18.60;99.90;;;;;;5007382;28;20041;-84
2023/09/17 10:03:31;;;;;;;33.50;29.35;;;18.60;99.90;;;;;;5031347;28;20136;-83
2023/09/17 10:06:06;;;;;;;36.53;31.10;;;18.60;99.90;;;;;;5012209;28;20527;-83
2023/09/17 10:08:37;;;;;;;32.83;29.13;;;18.60;99.90;;;;;;5012735;28;20041;-83
2023/09/17 10:11:05;;;;;;;32.53;29.08;;;18.60;99.90;;;;;;5030815;28;20088;-82
2023/09/17 10:13:33;;;;;;;37.35;30.55;;;18.70;99.90;;;;;;5001032;28;20049;-83
2023/09/17 10:16:06;;;;;;;30.98;26.63;;;18.70;99.90;;;;;;5004009;28;20104;-83
2023/09/17 10:18:35;;;;;;;30.25;26.50;;;18.70;99.90;;;;;;4994392;28;20065;-83
2023/09/17 10:21:02;;;;;;;30.58;27.02;;;18.70;99.90;;;;;;5024375;28;20041;-83
2023/09/17 10:23:30;;;;;;;30.95;26.98;;;18.70;99.90;;;;;;5005642;28;20037;-82
2023/09/17 10:25:58;;;;;;;30.00;26.83;;;18.70;99.90;;;;;;5024981;28;20041;-83
2023/09/17 10:28:25;;;;;;;30.35;26.13;;;18.80;99.90;;;;;;4998780;28;20156;-83
2023/09/17 10:30:52;;;;;;;29.83;25.45;;;18.80;99.90;;;;;;4995170;28;20564;-82
2023/09/17 10:33:18;;;;;;;30.63;27.27;;;18.80;99.90;;;;;;5017085;28;20045;-83
2023/09/17 10:35:45;;;;;;;29.67;25.95;;;18.80;99.90;;;;;;5015377;28;20449;-83
2023/09/17 10:38:14;;;;;;;29.10;26.05;;;18.90;99.90;;;;;;4998415;28;20045;-83
2023/09/17 10:40:40;;;;;;;27.45;24.40;;;19.10;99.90;;;;;;4989657;28;20042;-83
2023/09/17 10:43:07;;;;;;;29.38;24.77;;;19.20;99.90;;;;;;4998686;28;20054;-83
2023/09/17 10:45:39;;;;;;;28.42;25.45;;;19.20;99.90;;;;;;5014364;28;20133;-83
2023/09/17 10:48:08;;;;;;;28.60;25.40;;;19.40;99.90;;;;;;5028920;28;20060;-83
2023/09/17 10:50:35;;;;;;;26.88;23.98;;;19.50;99.90;;;;;;5013061;28;20068;-83
2023/09/17 10:53:00;;;;;;;27.23;23.33;;;19.50;99.90;;;;;;4995196;28;20050;-84
2023/09/17 10:55:32;;;;;;;27.73;24.75;;;19.70;99.90;;;;;;4999996;28;20103;-84
2023/09/17 10:58:15;;;;;;;26.92;24.02;;;19.70;99.90;;;;;;5015923;28;20034;-84
2023/09/17 11:00:42;;;;;;;26.05;23.25;;;19.60;99.90;;;;;;5014884;28;20042;-83
2023/09/17 11:03:11;;;;;;;27.33;24.52;;;19.50;99.90;;;;;;5031297;28;20120;-83
2023/09/17 11:05:38;;;;;;;26.95;24.13;;;19.50;99.90;;;;;;5014876;28;20048;-83
2023/09/17 11:08:05;;;;;;;27.75;24.92;;;19.50;99.90;;;;;;5019915;28;20041;-84
2023/09/17 11:10:31;;;;;;;28.10;25.17;;;19.50;99.90;;;;;;5012443;28;20045;-84
2023/09/17 11:12:57;;;;;;;27.92;23.90;;;19.40;99.90;;;;;;5025654;28;20044;-83
2023/09/17 11:15:23;;;;;;;29.80;26.60;;;19.30;99.90;;;;;;5025769;28;20041;-84
2023/09/17 11:17:50;;;;;;;30.40;25.95;;;19.30;99.90;;;;;;5023918;28;20047;-81
2023/09/17 11:20:20;;;;;;;29.20;26.08;;;19.30;99.90;;;;;;5027953;28;20041;-83
2023/09/17 11:22:52;;;;;;;30.45;27.25;;;19.20;99.90;;;;;;5012690;28;20615;-83
2023/09/17 11:25:39;;;;;;;31.00;27.75;;;19.20;99.90;;;;;;4996897;28;20041;-83
2023/09/17 11:28:12;;;;;;;30.55;27.33;;;19.20;99.90;;;;;;4994823;28;20524;-83
2023/09/17 11:30:58;;;;;;;31.30;27.20;;;19.30;99.90;;;;;;5007335;28;20477;-85
2023/09/17 11:33:26;;;;;;;31.65;28.25;;;19.50;99.90;;;;;;5010534;28;20489;-84
2023/09/17 11:35:54;;;;;;;29.27;26.17;;;19.70;99.90;;;;;;5010763;28;20175;-83
2023/09/17 11:38:24;;;;;;;30.30;26.98;;;20.00;99.90;;;;;;5013353;28;20041;-83
2023/09/17 11:41:10;;;;;;;27.95;25.05;;;20.30;99.90;;;;;;5013116;28;20045;-84
2023/09/17 11:43:38;;;;;;;28.48;25.58;;;20.60;99.90;;;;;;5020805;28;20041;-84
2023/09/17 11:46:10;;;;;;;28.60;25.60;;;20.70;99.90;;;;;;5016944;28;20074;-84
2023/09/17 11:48:37;;;;;;;27.23;23.70;;;20.80;99.90;;;;;;5018148;28;20037;-85
2023/09/17 11:51:23;;;;;;;26.77;23.52;;;20.90;99.90;;;;;;5000982;28;20042;-84
2023/09/17 11:54:15;;;;;;;29.05;25.13;;;21.20;99.90;;;;;;5017863;28;20432;-84
2023/09/17 11:56:53;;;;;;;29.52;25.17;;;21.20;99.90;;;;;;5011939;28;20045;-83
2023/09/17 11:59:20;;;;;;;27.75;24.02;;;21.00;99.90;;;;;;5033733;28;20052;-83
2023/09/17 12:01:52;;;;;;;27.13;24.20;;;21.00;99.90;;;;;;5033935;28;20052;-83
2023/09/17 12:04:20;;;;;;;26.75;23.83;;;20.90;99.90;;;;;;5017432;28;20370;-83
2023/09/17 12:06:48;;;;;;;27.60;24.48;;;20.90;99.90;;;;;;5017542;28;20771;-84
2023/09/17 12:09:28;;;;;;;27.33;24.35;;;20.90;99.90;;;;;;5032799;28;20730;-83
2023/09/17 12:11:55;;;;;;;28.98;25.50;;;20.90;99.90;;;;;;5002715;28;20037;-83
2023/09/17 12:14:21;;;;;;;28.55;25.48;;;20.90;99.90;;;;;;5000801;28;20076;-83
2023/09/17 12:16:49;;;;;;;31.60;26.33;;;20.90;99.90;;;;;;5017183;28;20033;-83
2023/09/17 12:19:15;;;;;;;27.20;24.10;;;20.90;99.90;;;;;;4973034;28;20049;-83
2023/09/17 12:21:43;;;;;;;28.52;25.50;;;20.90;99.90;;;;;;5032453;28;20037;-84
2023/09/17 12:24:23;;;;;;;30.73;26.63;;;20.90;99.90;;;;;;5001641;28;20428;-84
2023/09/17 12:29:37;;;;;;;31.58;27.15;;;20.90;99.90;;;;;;5031339;28;20045;-83
2023/09/17 12:32:04;;;;;;;30.20;26.20;;;21.00;99.90;;;;;;4997688;28;20042;-83